createdAt,value
2022-09-15T00:00:59.457Z,46.10
2022-09-15T00:03:25.598Z,46.10
2022-09-15T00:05:53.869Z,46.10
2022-09-15T00:08:20.535Z,46.10
2022-09-15T00:10:57.666Z,46.10
2022-09-15T00:13:25.306Z,46.10
2022-09-15T00:15:51.770Z,46.10
2022-09-15T00:18:18.184Z,46.10
2022-09-15T00:20:45.316Z,46.20
2022-09-15T00:23:14.226Z,46.10
2022-09-15T00:25:48.665Z,46.20
2022-09-15T00:28:16.548Z,46.10
2022-09-15T00:30:49.068Z,46.20
2022-09-15T00:33:16.118Z,46.20
2022-09-15T00:35:43.973Z,46.10
2022-09-15T00:38:11.514Z,46.10
2022-09-15T00:40:56.066Z,46.10
2022-09-15T00:43:51.201Z,46.10
2022-09-15T00:46:27.518Z,46.20
2022-09-15T00:49:08.394Z,46.20
2022-09-15T00:51:52.151Z,46.20
2022-09-15T00:54:52.922Z,46.20
2022-09-15T00:57:27.663Z,46.20
2022-09-15T00:59:56.051Z,46.20
2022-09-15T01:02:26.500Z,46.20
2022-09-15T01:04:58.178Z,46.10
2022-09-15T01:07:32.546Z,46.10
2022-09-15T01:10:02.040Z,46.20
2022-09-15T01:12:28.117Z,46.10
2022-09-15T01:14:54.299Z,46.10
2022-09-15T01:17:39.195Z,46.20
2022-09-15T01:20:29.101Z,46.20
2022-09-15T01:23:21.725Z,46.20
2022-09-15T01:26:00.026Z,46.20
2022-09-15T01:28:56.594Z,46.20
2022-09-15T01:32:15.267Z,46.10
2022-09-15T01:34:54.731Z,46.20
2022-09-15T01:37:26.726Z,46.20
2022-09-15T01:39:55.819Z,46.10
2022-09-15T01:42:23.637Z,46.20
2022-09-15T01:44:57.138Z,46.20
2022-09-15T01:47:26.735Z,46.20
2022-09-15T01:50:00.899Z,46.20
2022-09-15T01:52:28.552Z,46.20
2022-09-15T01:54:58.897Z,46.80
2022-09-15T01:57:26.139Z,46.20
2022-09-15T01:59:55.157Z,46.20
2022-09-15T02:02:32.350Z,46.10
2022-09-15T02:05:29.491Z,46.20
2022-09-15T02:08:11.918Z,46.20
2022-09-15T02:10:41.773Z,46.20
2022-09-15T02:13:17.255Z,46.20
2022-09-15T02:15:51.795Z,46.20
2022-09-15T02:18:29.838Z,46.20
2022-09-15T02:21:10.032Z,46.20
2022-09-15T02:23:42.970Z,46.20
2022-09-15T02:26:14.142Z,46.20
2022-09-15T02:28:42.486Z,46.20
2022-09-15T02:31:13.163Z,46.20
2022-09-15T02:33:44.046Z,46.20
2022-09-15T02:36:13.133Z,46.20
2022-09-15T02:38:49.314Z,46.20
2022-09-15T02:41:16.530Z,46.30
2022-09-15T02:43:47.218Z,46.20
2022-09-15T02:46:15.186Z,46.20
2022-09-15T02:48:41.477Z,46.20
2022-09-15T02:51:07.697Z,46.30
2022-09-15T02:53:33.933Z,46.20
2022-09-15T02:56:00.020Z,46.20
2022-09-15T02:58:26.080Z,46.20
2022-09-15T03:00:55.031Z,46.20
2022-09-15T03:03:21.529Z,46.30
2022-09-15T03:05:47.707Z,46.20
2022-09-15T03:08:13.754Z,46.20
2022-09-15T03:10:39.792Z,46.20
2022-09-15T03:13:07.079Z,46.20
2022-09-15T03:15:33.421Z,46.20
2022-09-15T03:18:01.341Z,46.20
2022-09-15T03:20:28.059Z,46.20
2022-09-15T03:22:54.561Z,46.20
2022-09-15T03:25:20.777Z,46.20
2022-09-15T03:27:46.945Z,46.20
2022-09-15T03:30:13.786Z,46.20
2022-09-15T03:32:40.456Z,46.20
2022-09-15T03:35:07.094Z,46.20
2022-09-15T03:37:33.705Z,46.20
2022-09-15T03:39:59.901Z,46.20
2022-09-15T03:42:26.162Z,46.20
2022-09-15T03:44:52.388Z,46.20
2022-09-15T03:47:18.455Z,46.20
2022-09-15T03:49:44.503Z,46.20
2022-09-15T03:52:11.538Z,46.20
2022-09-15T03:54:37.711Z,46.20
2022-09-15T03:57:04.072Z,46.20
2022-09-15T03:59:30.173Z,46.10
2022-09-15T04:01:56.412Z,46.20
2022-09-15T04:04:22.525Z,46.20
2022-09-15T04:06:48.590Z,46.20
2022-09-15T04:09:14.837Z,46.10
2022-09-15T04:11:41.262Z,46.20
2022-09-15T04:14:07.326Z,46.20
2022-09-15T04:16:33.473Z,46.20
2022-09-15T04:18:59.739Z,46.20
2022-09-15T04:21:26.421Z,46.20
2022-09-15T04:23:53.406Z,46.20
2022-09-15T04:26:35.376Z,46.10
2022-09-15T04:29:04.614Z,46.10
2022-09-15T04:31:32.117Z,46.20
2022-09-15T04:33:58.718Z,46.10
2022-09-15T04:36:27.589Z,46.20
2022-09-15T04:38:54.685Z,46.20
2022-09-15T04:41:21.075Z,46.20
2022-09-15T04:43:47.594Z,46.20
2022-09-15T04:46:14.498Z,46.20
2022-09-15T04:48:41.024Z,46.20
2022-09-15T04:51:10.049Z,46.20
2022-09-15T04:53:36.567Z,46.20
2022-09-15T04:56:08.527Z,46.20
2022-09-15T04:58:38.646Z,46.20
2022-09-15T05:01:10.059Z,46.20
2022-09-15T05:03:37.038Z,46.20
2022-09-15T05:06:05.371Z,46.00
2022-09-15T05:08:31.467Z,45.90
2022-09-15T05:11:03.583Z,45.90
2022-09-15T05:13:29.659Z,45.80
2022-09-15T05:15:56.144Z,45.80
2022-09-15T05:18:22.226Z,45.80
2022-09-15T05:20:48.307Z,45.80
2022-09-15T05:23:14.375Z,45.90
2022-09-15T05:25:40.430Z,45.80
2022-09-15T05:28:07.123Z,45.70
2022-09-15T05:30:38.584Z,45.70
2022-09-15T05:33:06.035Z,45.80
2022-09-15T05:35:32.129Z,45.80
2022-09-15T05:37:58.197Z,45.80
2022-09-15T05:40:24.358Z,45.90
2022-09-15T05:42:50.415Z,45.80
2022-09-15T05:45:16.750Z,45.80
2022-09-15T05:47:42.862Z,45.80
2022-09-15T05:50:10.437Z,45.80
2022-09-15T05:52:37.114Z,45.80
2022-09-15T05:55:03.981Z,45.80
2022-09-15T05:57:30.106Z,45.80
2022-09-15T05:59:56.449Z,45.80
2022-09-15T06:02:22.556Z,45.70
2022-09-15T06:04:48.796Z,45.80
2022-09-15T06:07:16.172Z,45.80
2022-09-15T06:09:42.325Z,45.80
2022-09-15T06:12:08.378Z,45.80
2022-09-15T06:14:34.477Z,45.80
2022-09-15T06:17:00.523Z,45.70
2022-09-15T06:19:26.569Z,45.80
2022-09-15T06:21:53.500Z,45.70
2022-09-15T06:24:19.535Z,45.70
2022-09-15T06:26:45.589Z,45.70
2022-09-15T06:29:12.184Z,45.70
2022-09-15T06:31:38.946Z,45.70
2022-09-15T06:34:06.027Z,45.70
2022-09-15T06:36:32.673Z,45.70
2022-09-15T06:38:59.112Z,45.70
2022-09-15T06:41:25.708Z,45.70
2022-09-15T06:43:52.366Z,45.70
2022-09-15T06:46:21.380Z,45.70
2022-09-15T06:48:48.679Z,45.70
2022-09-15T06:51:16.435Z,45.60
2022-09-15T06:53:43.399Z,45.70
2022-09-15T06:56:14.585Z,45.70
2022-09-15T06:58:42.039Z,45.70
2022-09-15T07:01:11.638Z,45.70
2022-09-15T07:03:41.737Z,45.70
2022-09-15T07:06:08.675Z,45.70
2022-09-15T07:08:34.976Z,45.70
2022-09-15T07:11:01.316Z,45.70
2022-09-15T07:13:27.381Z,45.70
2022-09-15T07:15:55.640Z,45.70
2022-09-15T07:18:22.489Z,45.70
2022-09-15T07:20:49.490Z,45.70
2022-09-15T07:23:16.283Z,45.70
2022-09-15T07:25:44.517Z,45.70
2022-09-15T07:28:14.666Z,45.70
2022-09-15T07:30:41.693Z,45.80
2022-09-15T07:33:09.610Z,45.70
2022-09-15T07:35:43.821Z,45.70
2022-09-15T07:38:10.441Z,45.70
2022-09-15T07:40:37.878Z,45.70
2022-09-15T07:43:05.359Z,45.70
2022-09-15T07:45:32.125Z,45.70
2022-09-15T07:47:58.319Z,45.70
2022-09-15T07:50:24.435Z,45.70
2022-09-15T07:52:50.472Z,45.70
2022-09-15T07:55:17.691Z,45.70
2022-09-15T07:57:43.722Z,45.70
2022-09-15T08:00:10.410Z,45.70
2022-09-15T08:02:36.454Z,45.70
2022-09-15T08:05:02.623Z,45.80
2022-09-15T08:07:28.725Z,45.80
2022-09-15T08:09:54.773Z,45.80
2022-09-15T08:12:20.814Z,45.70
2022-09-15T08:14:46.905Z,45.70
2022-09-15T08:17:12.997Z,45.70
2022-09-15T08:19:39.106Z,45.70
2022-09-15T08:22:05.152Z,45.70
2022-09-15T08:24:31.219Z,45.80
2022-09-15T08:26:57.263Z,45.70
2022-09-15T08:29:23.414Z,45.70
2022-09-15T08:31:49.584Z,45.80
2022-09-15T08:34:16.857Z,45.80
2022-09-15T08:36:42.913Z,45.80
2022-09-15T08:39:09.041Z,45.80
2022-09-15T08:41:46.358Z,45.70
2022-09-15T08:44:26.718Z,45.70
2022-09-15T08:47:05.442Z,45.80
2022-09-15T08:49:59.251Z,45.80
2022-09-15T08:52:31.862Z,45.70
2022-09-15T08:55:10.355Z,45.80
2022-09-15T08:57:36.509Z,45.90
2022-09-15T09:00:03.167Z,45.70
2022-09-15T09:03:06.443Z,45.70
2022-09-15T09:05:50.028Z,45.80
2022-09-15T09:08:18.849Z,45.80
2022-09-15T09:10:53.874Z,45.80
2022-09-15T09:13:35.217Z,45.80
2022-09-15T09:16:20.705Z,45.80
2022-09-15T09:19:12.715Z,45.80
2022-09-15T09:22:06.059Z,45.80
2022-09-15T09:24:38.605Z,45.90
2022-09-15T09:27:09.476Z,45.90
2022-09-15T09:30:19.388Z,45.90
2022-09-15T09:33:10.191Z,45.90
2022-09-15T09:35:49.157Z,45.90
2022-09-15T09:38:28.131Z,45.90
2022-09-15T09:40:59.837Z,45.80
2022-09-15T09:43:29.971Z,45.80
2022-09-15T09:45:56.326Z,45.80
2022-09-15T09:48:25.652Z,45.90
2022-09-15T09:50:51.915Z,45.80
2022-09-15T09:53:28.264Z,45.80
2022-09-15T09:56:14.415Z,45.90
2022-09-15T09:58:40.469Z,45.90
2022-09-15T10:01:19.722Z,45.90
2022-09-15T10:03:46.285Z,45.90
2022-09-15T10:06:23.912Z,45.90
2022-09-15T10:09:02.800Z,45.90
2022-09-15T10:11:52.986Z,45.90
2022-09-15T10:14:26.091Z,45.90
2022-09-15T10:17:14.912Z,45.90
2022-09-15T10:19:59.421Z,45.90
2022-09-15T10:22:32.596Z,45.90
2022-09-15T10:25:00.516Z,45.90
2022-09-15T10:27:35.006Z,46.00
2022-09-15T10:30:13.872Z,46.00
2022-09-15T10:32:41.697Z,45.90
2022-09-15T10:35:19.078Z,46.00
2022-09-15T10:38:07.738Z,45.80
2022-09-15T10:40:42.671Z,45.70
2022-09-15T10:43:37.106Z,45.70
2022-09-15T10:46:26.509Z,45.60
2022-09-15T10:48:58.553Z,45.80
2022-09-15T10:51:55.599Z,45.70
2022-09-15T10:54:52.437Z,45.60
2022-09-15T10:57:35.966Z,45.70
2022-09-15T11:00:23.458Z,45.60
2022-09-15T11:02:52.262Z,45.60
2022-09-15T11:05:31.565Z,45.60
2022-09-15T11:08:16.230Z,45.60
2022-09-15T11:10:53.542Z,45.60
2022-09-15T11:13:46.981Z,45.60
2022-09-15T11:16:34.631Z,45.50
2022-09-15T11:19:10.670Z,45.50
2022-09-15T11:21:46.694Z,45.50
2022-09-15T11:24:42.319Z,45.50
2022-09-15T11:27:22.511Z,45.50
2022-09-15T11:30:21.006Z,45.50
2022-09-15T11:33:29.734Z,45.40
2022-09-15T11:36:12.592Z,45.30
2022-09-15T11:38:47.339Z,45.20
2022-09-15T11:41:19.393Z,45.20
2022-09-15T11:43:53.709Z,45.10
2022-09-15T11:46:36.065Z,45.00
2022-09-15T11:49:13.239Z,44.90
2022-09-15T11:51:50.028Z,44.90
2022-09-15T11:54:42.448Z,44.80
2022-09-15T11:57:17.590Z,44.80
2022-09-15T12:00:07.724Z,44.80
2022-09-15T12:02:36.624Z,44.70
2022-09-15T12:05:28.898Z,44.70
2022-09-15T12:08:06.083Z,44.60
2022-09-15T12:10:40.854Z,44.40
2022-09-15T12:13:20.515Z,44.60
2022-09-15T12:15:47.535Z,44.60
2022-09-15T12:18:42.750Z,44.50
2022-09-15T12:21:21.236Z,44.30
2022-09-15T12:23:52.398Z,44.40
2022-09-15T12:26:22.754Z,44.20
2022-09-15T12:29:02.633Z,44.20
2022-09-15T12:31:33.582Z,43.90
2022-09-15T12:34:06.238Z,43.90
2022-09-15T12:36:48.895Z,43.90
2022-09-15T12:39:18.097Z,43.90
2022-09-15T12:41:49.643Z,43.80
2022-09-15T12:44:23.277Z,43.80
2022-09-15T12:46:52.318Z,43.80
2022-09-15T12:49:25.261Z,43.70
2022-09-15T12:51:52.152Z,43.60
2022-09-15T12:54:28.927Z,43.60
2022-09-15T12:56:56.821Z,43.60
2022-09-15T12:59:25.233Z,43.50
2022-09-15T13:01:52.948Z,43.70
2022-09-15T13:04:43.047Z,43.70
2022-09-15T13:07:15.329Z,43.60
2022-09-15T13:10:18.712Z,43.60
2022-09-15T13:12:53.826Z,43.60
2022-09-15T13:15:23.508Z,43.70
2022-09-15T13:17:50.375Z,43.60
2022-09-15T13:20:23.322Z,43.60
2022-09-15T13:22:52.316Z,43.60
2022-09-15T13:25:25.553Z,43.60
2022-09-15T13:27:54.195Z,43.40
2022-09-15T13:30:20.574Z,43.40
2022-09-15T13:33:04.390Z,43.50
2022-09-15T13:35:58.219Z,43.50
2022-09-15T13:38:41.357Z,43.50
2022-09-15T13:41:13.183Z,43.60
2022-09-15T13:44:17.199Z,43.60
2022-09-15T13:47:25.093Z,43.50
2022-09-15T13:50:10.766Z,43.50
2022-09-15T13:53:05.954Z,43.40
2022-09-15T13:55:37.637Z,43.30
2022-09-15T14:00:51.130Z,43.40
2022-09-15T14:03:38.791Z,43.40
2022-09-15T14:06:35.717Z,43.30
2022-09-15T14:09:08.948Z,43.40
2022-09-15T14:11:36.778Z,43.50
2022-09-15T14:14:08.829Z,43.50
2022-09-15T14:16:36.647Z,43.50
2022-09-15T14:19:33.879Z,43.50
2022-09-15T14:22:25.427Z,43.50
2022-09-15T14:24:52.262Z,43.40
2022-09-15T14:27:26.813Z,43.40
2022-09-15T14:29:54.683Z,43.40
2022-09-15T14:32:21.324Z,43.40
2022-09-15T14:37:23.294Z,43.30
2022-09-15T14:39:55.712Z,43.30
2022-09-15T14:42:29.846Z,43.30
2022-09-15T14:48:00.706Z,43.30
2022-09-15T14:50:32.568Z,43.30
2022-09-15T14:53:21.106Z,43.30
2022-09-15T14:56:07.797Z,43.30
2022-09-15T14:58:51.016Z,43.30
2022-09-15T15:01:31.993Z,43.40
2022-09-15T15:04:17.575Z,43.40
2022-09-15T15:06:50.119Z,43.40
2022-09-15T15:09:22.531Z,43.40
2022-09-15T15:11:56.977Z,43.30
2022-09-15T15:17:00.067Z,43.40
2022-09-15T15:19:41.528Z,43.30
2022-09-15T15:22:20.139Z,43.30
2022-09-15T15:24:49.020Z,43.30
2022-09-15T15:27:33.502Z,43.20
2022-09-15T15:30:29.030Z,43.20
2022-09-15T15:33:13.335Z,43.10
2022-09-15T15:35:42.259Z,43.20
2022-09-15T15:38:15.874Z,43.10
2022-09-15T15:40:43.127Z,43.10
2022-09-15T15:43:23.146Z,43.00
2022-09-15T15:45:56.958Z,43.00
2022-09-15T15:48:38.311Z,43.00
2022-09-15T15:51:06.102Z,42.90
2022-09-15T15:53:32.394Z,43.00
2022-09-15T15:56:00.141Z,42.90
2022-09-15T15:58:26.525Z,42.90
2022-09-15T16:00:55.732Z,42.90
2022-09-15T16:03:23.381Z,42.90
2022-09-15T16:05:57.674Z,42.80
2022-09-15T16:08:30.465Z,42.80
2022-09-15T16:10:57.406Z,42.80
2022-09-15T16:13:24.591Z,42.80
2022-09-15T16:15:56.045Z,42.80
2022-09-15T16:18:22.157Z,42.80
2022-09-15T16:20:48.257Z,43.60
2022-09-15T16:23:18.054Z,42.90
2022-09-15T16:25:58.897Z,42.90
2022-09-15T16:28:25.130Z,42.90
2022-09-15T16:30:51.231Z,42.90
2022-09-15T16:33:18.477Z,42.90
2022-09-15T16:35:52.354Z,42.90
2022-09-15T16:38:19.813Z,43.00
2022-09-15T16:40:47.231Z,43.00
2022-09-15T16:43:15.845Z,43.00
2022-09-15T16:45:42.298Z,43.00
2022-09-15T16:48:09.255Z,43.00
2022-09-15T16:50:37.802Z,43.00
2022-09-15T16:53:11.495Z,43.10
2022-09-15T16:55:49.823Z,43.10
2022-09-15T16:58:17.438Z,43.10
2022-09-15T17:00:45.210Z,43.10
2022-09-15T17:03:16.259Z,43.10
2022-09-15T17:05:50.029Z,43.00
2022-09-15T17:08:18.465Z,43.00
2022-09-15T17:10:45.418Z,43.00
2022-09-15T17:13:17.973Z,43.00
2022-09-15T17:15:45.277Z,43.00
2022-09-15T17:18:15.795Z,43.10
2022-09-15T17:20:46.552Z,43.10
2022-09-15T17:23:24.601Z,43.20
2022-09-15T17:25:52.776Z,43.30
2022-09-15T17:28:21.793Z,43.90
2022-09-15T17:30:50.732Z,43.30
2022-09-15T17:33:18.593Z,43.30
2022-09-15T17:35:45.794Z,43.30
2022-09-15T17:38:12.005Z,43.30
2022-09-15T17:40:38.346Z,43.40
2022-09-15T17:43:04.593Z,43.40
2022-09-15T17:45:35.658Z,43.40
2022-09-15T17:48:04.844Z,43.40
2022-09-15T17:50:33.324Z,43.40
2022-09-15T17:52:59.902Z,43.50
2022-09-15T17:55:31.525Z,43.40
2022-09-15T17:57:59.909Z,43.40
2022-09-15T18:00:28.834Z,44.10
2022-09-15T18:02:57.713Z,43.50
2022-09-15T18:05:29.622Z,43.40
2022-09-15T18:07:57.547Z,43.50
2022-09-15T18:10:24.957Z,43.50
2022-09-15T18:12:55.004Z,43.50
2022-09-15T18:15:27.556Z,43.50
2022-09-15T18:17:56.731Z,43.50
2022-09-15T18:20:29.016Z,43.50
2022-09-15T18:22:56.081Z,43.50
2022-09-15T18:25:29.092Z,43.50
2022-09-15T18:27:55.605Z,43.60
2022-09-15T18:30:23.751Z,43.60
2022-09-15T18:32:50.327Z,43.60
2022-09-15T18:35:18.872Z,43.60
2022-09-15T18:37:47.154Z,43.70
2022-09-15T18:40:16.017Z,43.70
2022-09-15T18:42:42.506Z,43.70
2022-09-15T18:45:11.054Z,43.60
2022-09-15T18:47:37.481Z,43.70
2022-09-15T18:50:04.843Z,43.60
2022-09-15T18:52:33.991Z,43.60
2022-09-15T18:55:00.039Z,44.30
2022-09-15T18:57:26.089Z,43.70
2022-09-15T18:59:52.125Z,43.70
2022-09-15T19:02:18.281Z,43.70
2022-09-15T19:04:44.772Z,43.70
2022-09-15T19:07:11.581Z,43.80
2022-09-15T19:09:37.889Z,43.70
2022-09-15T19:12:04.426Z,43.70
2022-09-15T19:14:30.976Z,43.80
2022-09-15T19:16:58.483Z,43.80
2022-09-15T19:19:24.952Z,43.80
2022-09-15T19:21:51.143Z,43.80
2022-09-15T19:24:17.354Z,43.80
2022-09-15T19:26:46.070Z,43.80
2022-09-15T19:29:13.294Z,43.80
2022-09-15T19:31:41.998Z,43.80
2022-09-15T19:34:08.957Z,43.90
2022-09-15T19:36:35.002Z,43.80
2022-09-15T19:39:02.714Z,43.80
2022-09-15T19:41:29.854Z,43.80
2022-09-15T19:43:56.325Z,43.80
2022-09-15T19:46:24.431Z,43.80
2022-09-15T19:48:51.521Z,43.80
2022-09-15T19:51:18.503Z,43.80
2022-09-15T19:53:45.670Z,43.80
2022-09-15T19:56:17.706Z,43.80
2022-09-15T19:58:45.190Z,43.80
2022-09-15T20:01:11.303Z,43.80
2022-09-15T20:03:38.466Z,43.80
2022-09-15T20:06:08.758Z,43.90
2022-09-15T20:08:35.674Z,43.90
2022-09-15T20:11:06.739Z,43.90
2022-09-15T20:13:33.161Z,43.90
2022-09-15T20:16:01.658Z,44.00
2022-09-15T20:18:30.169Z,43.90
2022-09-15T20:20:56.390Z,43.90
2022-09-15T20:23:22.827Z,43.90
2022-09-15T20:25:56.667Z,43.90
2022-09-15T20:28:22.917Z,44.00
2022-09-15T20:31:08.527Z,44.00
2022-09-15T20:33:36.630Z,44.00
2022-09-15T20:36:05.675Z,43.90
2022-09-15T20:38:33.379Z,43.90
2022-09-15T20:40:59.967Z,44.00
2022-09-15T20:43:26.252Z,44.00
2022-09-15T20:45:56.967Z,44.00
2022-09-15T20:48:23.223Z,44.00
2022-09-15T20:50:50.158Z,44.00
2022-09-15T20:53:16.470Z,44.00
2022-09-15T20:55:49.229Z,44.00
2022-09-15T20:58:15.279Z,44.00
2022-09-15T21:00:41.370Z,44.10
2022-09-15T21:03:07.857Z,44.00
2022-09-15T21:05:33.885Z,44.00
2022-09-15T21:08:00.859Z,44.00
2022-09-15T21:10:26.909Z,44.00
2022-09-15T21:12:53.201Z,44.00
2022-09-15T21:15:19.215Z,44.10
2022-09-15T21:17:45.246Z,44.00
2022-09-15T21:20:11.291Z,44.00
2022-09-15T21:22:37.354Z,44.00
2022-09-15T21:25:03.722Z,44.10
2022-09-15T21:27:30.397Z,44.10
2022-09-15T21:29:56.491Z,44.10
2022-09-15T21:32:23.665Z,44.20
2022-09-15T21:34:49.707Z,44.10
2022-09-15T21:37:15.795Z,44.10
2022-09-15T21:39:42.329Z,44.10
2022-09-15T21:42:09.561Z,44.10
2022-09-15T21:44:35.607Z,44.10
2022-09-15T21:47:01.651Z,44.10
2022-09-15T21:49:27.687Z,44.10
2022-09-15T21:51:53.721Z,44.10
2022-09-15T21:54:19.906Z,44.20
2022-09-15T21:56:45.953Z,44.10
2022-09-15T21:59:12.129Z,44.10
2022-09-15T22:01:39.756Z,44.10
2022-09-15T22:04:07.761Z,44.10
2022-09-15T22:06:36.342Z,44.20
2022-09-15T22:09:22.677Z,44.20
2022-09-15T22:11:48.730Z,44.10
2022-09-15T22:14:14.994Z,44.10
2022-09-15T22:16:41.830Z,44.20
2022-09-15T22:19:10.381Z,44.20
2022-09-15T22:21:40.772Z,44.20
2022-09-15T22:24:09.011Z,44.30
2022-09-15T22:26:36.599Z,44.20
2022-09-15T22:29:03.452Z,44.20
2022-09-15T22:31:30.220Z,44.20
2022-09-15T22:33:56.565Z,44.20
2022-09-15T22:36:29.370Z,44.20
2022-09-15T22:39:04.135Z,44.20
2022-09-15T22:41:36.305Z,44.20
2022-09-15T22:44:03.380Z,44.20
2022-09-15T22:46:29.561Z,44.20
2022-09-15T22:48:55.871Z,44.20
2022-09-15T22:51:21.983Z,44.20
2022-09-15T22:53:48.177Z,44.20
2022-09-15T22:56:19.153Z,44.20
2022-09-15T22:58:46.583Z,44.20
2022-09-15T23:01:21.243Z,44.20
2022-09-15T23:03:51.895Z,44.20
2022-09-15T23:06:19.343Z,44.20
2022-09-15T23:08:56.239Z,44.20
2022-09-15T23:11:22.965Z,44.30
2022-09-15T23:13:49.359Z,44.30
2022-09-15T23:16:16.258Z,44.30
2022-09-15T23:18:42.401Z,44.30
2022-09-15T23:21:10.295Z,44.30
2022-09-15T23:23:38.732Z,44.30
2022-09-15T23:26:06.650Z,44.30
2022-09-15T23:28:33.245Z,44.30
2022-09-15T23:30:59.680Z,44.30
2022-09-15T23:33:27.604Z,44.20
2022-09-15T23:35:54.657Z,44.20
2022-09-15T23:38:21.634Z,44.20
2022-09-15T23:40:49.195Z,44.20
2022-09-15T23:43:16.094Z,44.30
2022-09-15T23:45:43.309Z,44.30
2022-09-15T23:48:10.210Z,44.30
2022-09-15T23:50:37.690Z,44.20
2022-09-15T23:53:04.294Z,44.20
2022-09-15T23:55:30.466Z,44.30
2022-09-15T23:57:56.892Z,44.30
